createdAt,value
2023-02-08T02:43:36.221Z,-0.80
2023-02-08T02:46:08.516Z,-0.90
2023-02-08T02:48:43.358Z,-0.90
2023-02-08T02:51:14.682Z,-0.90
2023-02-08T02:53:49.798Z,-0.90
2023-02-08T02:56:21.769Z,-1.00
2023-02-08T02:58:50.495Z,-1.00
2023-02-08T03:01:25.984Z,-1.00
2023-02-08T03:03:55.803Z,-1.00
2023-02-08T03:06:31.968Z,-1.00
2023-02-08T03:09:17.297Z,-1.10
2023-02-08T03:11:55.855Z,-1.10
2023-02-08T03:14:35.726Z,-1.10
2023-02-08T03:17:16.212Z,-1.10
2023-02-08T03:19:55.525Z,-1.10
2023-02-08T03:22:27.551Z,-1.10
2023-02-08T03:24:58.788Z,-1.20
2023-02-08T03:27:31.877Z,-1.10
2023-02-08T03:30:04.464Z,-1.20
2023-02-08T03:32:39.140Z,-1.20
2023-02-08T03:35:15.984Z,-1.20
2023-02-08T03:37:47.949Z,-1.20
2023-02-08T03:40:20.627Z,-1.20
2023-02-08T03:42:51.005Z,-1.30
2023-02-08T03:45:23.283Z,-1.30
2023-02-08T03:47:53.040Z,-1.30
2023-02-08T03:50:24.128Z,-1.30
2023-02-08T03:52:52.994Z,-1.30
2023-02-08T03:55:25.675Z,-1.30
2023-02-08T03:57:58.136Z,-1.30
2023-02-08T04:00:26.447Z,-1.30
2023-02-08T04:02:58.334Z,-1.30
2023-02-08T04:05:28.143Z,-1.40
2023-02-08T04:07:56.005Z,-1.40
2023-02-08T04:10:23.861Z,-1.40
2023-02-08T04:12:51.761Z,-1.40
2023-02-08T04:15:19.728Z,-1.40
2023-02-08T04:17:47.507Z,-1.40
2023-02-08T04:20:15.367Z,-1.40
2023-02-08T04:22:44.530Z,-1.40
2023-02-08T04:25:12.566Z,-1.40
2023-02-08T04:27:41.369Z,-1.40
2023-02-08T04:30:10.048Z,-1.40
2023-02-08T04:32:37.923Z,-1.40
2023-02-08T04:35:06.682Z,-1.40
2023-02-08T04:37:34.703Z,-1.40
2023-02-08T04:40:03.950Z,-1.40
2023-02-08T04:42:31.763Z,-1.40
2023-02-08T04:44:59.564Z,-1.50
2023-02-08T04:47:27.375Z,-1.50
2023-02-08T04:49:55.184Z,-1.50
2023-02-08T04:52:23.055Z,-1.50
2023-02-08T04:54:50.922Z,-1.50
2023-02-08T04:57:20.058Z,-1.50
2023-02-08T04:59:47.863Z,-1.50
2023-02-08T05:02:15.684Z,-1.50
2023-02-08T05:04:43.477Z,-1.50
2023-02-08T05:07:11.239Z,-1.50
2023-02-08T05:09:39.097Z,-1.50
2023-02-08T05:12:07.091Z,-1.50
2023-02-08T05:14:36.691Z,-1.50
2023-02-08T05:17:04.523Z,-1.50
2023-02-08T05:19:32.369Z,-1.50
2023-02-08T05:22:00.159Z,-1.50
2023-02-08T05:24:27.901Z,-1.50
2023-02-08T05:26:55.682Z,-1.60
2023-02-08T05:29:23.573Z,-1.50
2023-02-08T05:31:52.818Z,-1.60
2023-02-08T05:34:20.700Z,-1.60
2023-02-08T05:36:48.525Z,-1.60
2023-02-08T05:39:16.468Z,-1.60
2023-02-08T05:41:44.282Z,-1.70
2023-02-08T05:44:12.100Z,-1.70
2023-02-08T05:46:39.948Z,-1.70
2023-02-08T05:49:09.188Z,-1.70
2023-02-08T05:51:37.250Z,-1.70
2023-02-08T05:54:05.273Z,-1.70
2023-02-08T05:56:33.205Z,-1.80
2023-02-08T05:59:01.852Z,-1.80
2023-02-08T06:01:30.136Z,-1.80
2023-02-08T06:03:59.985Z,-1.80
2023-02-08T06:06:29.511Z,-1.80
2023-02-08T06:08:57.335Z,-1.80
2023-02-08T06:11:25.156Z,-1.80
2023-02-08T06:13:52.942Z,-1.80
2023-02-08T06:16:20.756Z,-1.80
2023-02-08T06:18:48.587Z,-1.90
2023-02-08T06:21:16.390Z,-1.90
2023-02-08T06:23:45.505Z,-1.80
2023-02-08T06:26:13.364Z,-1.90
2023-02-08T06:28:41.185Z,-1.90
2023-02-08T06:31:08.996Z,-1.80
2023-02-08T06:33:37.134Z,-1.90
2023-02-08T06:36:05.187Z,-1.80
2023-02-08T06:38:32.983Z,-1.80
2023-02-08T06:41:02.144Z,-1.80
2023-02-08T06:43:29.974Z,-1.90
2023-02-08T06:45:57.843Z,-1.90
2023-02-08T06:48:25.646Z,-1.90
2023-02-08T06:50:53.736Z,-1.90
2023-02-08T06:53:21.828Z,-1.90
2023-02-08T06:55:50.196Z,-1.90
2023-02-08T06:58:19.949Z,-1.90
2023-02-08T07:00:47.855Z,-1.90
2023-02-08T07:03:17.410Z,-1.90
2023-02-08T07:05:59.026Z,-1.90
2023-02-08T07:08:31.781Z,-1.90
2023-02-08T07:10:59.579Z,-1.90
2023-02-08T07:13:28.741Z,-1.90
2023-02-08T07:15:56.614Z,-1.90
2023-02-08T07:18:24.380Z,-1.90
2023-02-08T07:20:52.153Z,-1.90
2023-02-08T07:23:19.965Z,-1.90
2023-02-08T07:25:56.870Z,-1.90
2023-02-08T07:28:24.739Z,-1.90
2023-02-08T07:30:54.177Z,-1.90
2023-02-08T07:33:22.691Z,-1.90
2023-02-08T07:35:50.921Z,-1.90
2023-02-08T07:38:20.814Z,-1.90
2023-02-08T07:40:48.790Z,-1.90
2023-02-08T07:43:16.625Z,-1.80
2023-02-08T07:45:44.481Z,-1.90
2023-02-08T07:48:13.762Z,-1.90
2023-02-08T07:50:41.933Z,-1.90
2023-02-08T07:53:09.860Z,-1.90
2023-02-08T07:55:37.787Z,-1.90
2023-02-08T07:58:05.626Z,-1.90
2023-02-08T08:00:33.505Z,-1.90
2023-02-08T08:03:01.761Z,-1.90
2023-02-08T08:05:30.952Z,-1.90
2023-02-08T08:07:58.755Z,-1.90
2023-02-08T08:10:26.660Z,-1.90
2023-02-08T08:12:54.501Z,-1.90
2023-02-08T08:15:22.307Z,-1.90
2023-02-08T08:17:50.189Z,-1.90
2023-02-08T08:20:18.485Z,-1.90
2023-02-08T08:22:47.921Z,-1.90
2023-02-08T08:25:16.175Z,-1.90
2023-02-08T08:27:44.183Z,-1.90
2023-02-08T08:30:14.792Z,-1.90
2023-02-08T08:32:42.805Z,-1.90
2023-02-08T08:35:11.323Z,-1.80
2023-02-08T08:37:39.723Z,-1.80
2023-02-08T08:40:10.285Z,-1.90
2023-02-08T08:42:39.770Z,-1.90
2023-02-08T08:45:09.115Z,-1.80
2023-02-08T08:47:37.135Z,-1.80
2023-02-08T08:50:05.218Z,-1.80
2023-02-08T08:52:33.153Z,-1.80
2023-02-08T08:55:00.985Z,-1.80
2023-02-08T08:57:30.164Z,-1.80
2023-02-08T08:59:58.051Z,-1.80
2023-02-08T09:02:25.902Z,-1.80
2023-02-08T09:04:54.007Z,-1.80
2023-02-08T09:07:21.826Z,-1.70
2023-02-08T09:09:49.672Z,-1.70
2023-02-08T09:12:17.533Z,-1.70
2023-02-08T09:14:46.743Z,-1.70
2023-02-08T09:17:14.585Z,-1.60
2023-02-08T09:19:42.631Z,-1.60
2023-02-08T09:22:10.460Z,-1.60
2023-02-08T09:24:38.262Z,-1.60
2023-02-08T09:27:06.111Z,-1.60
2023-02-08T09:29:34.481Z,-1.60
2023-02-08T09:32:04.283Z,-1.50
2023-02-08T09:34:32.103Z,-1.50
2023-02-08T09:36:59.990Z,-1.50
2023-02-08T09:39:27.895Z,-1.50
2023-02-08T09:42:10.654Z,-1.50
2023-02-08T09:44:48.156Z,-1.50
2023-02-08T09:47:21.585Z,-1.40
2023-02-08T09:49:58.673Z,-1.40
2023-02-08T09:52:33.187Z,-1.40
2023-02-08T09:55:04.996Z,-1.40
2023-02-08T09:57:36.049Z,-1.30
2023-02-08T10:00:05.548Z,-1.30
2023-02-08T10:02:35.762Z,-1.30
2023-02-08T10:05:06.605Z,-1.30
2023-02-08T10:07:35.883Z,-1.20
2023-02-08T10:10:07.103Z,-1.20
2023-02-08T10:12:49.303Z,-1.20
2023-02-08T10:15:24.381Z,-1.20
2023-02-08T10:18:12.063Z,-1.10
2023-02-08T10:20:53.784Z,-1.10
2023-02-08T10:23:49.098Z,-1.00
2023-02-08T10:26:25.943Z,-1.00
2023-02-08T10:29:09.777Z,-1.00
2023-02-08T10:31:49.080Z,-0.90
2023-02-08T10:34:31.240Z,-0.90
2023-02-08T10:37:01.399Z,-0.80
2023-02-08T10:39:31.864Z,-0.80
2023-02-08T10:42:00.540Z,-0.80
2023-02-08T10:44:35.019Z,-0.70
2023-02-08T10:47:14.342Z,-0.70
2023-02-08T10:49:51.461Z,-0.60
2023-02-08T10:52:19.609Z,-0.60
2023-02-08T10:54:47.425Z,-0.60
2023-02-08T10:57:19.224Z,-0.50
2023-02-08T10:59:50.643Z,-0.50
2023-02-08T11:02:24.046Z,-0.40
2023-02-08T11:05:04.838Z,-0.40
2023-02-08T11:07:36.217Z,-0.40
2023-02-08T11:10:17.120Z,-0.30
2023-02-08T11:12:56.407Z,-0.30
2023-02-08T11:15:26.508Z,-0.20
2023-02-08T11:17:58.882Z,-0.20
2023-02-08T11:20:41.819Z,-0.20
2023-02-08T11:23:22.724Z,-0.10
2023-02-08T11:25:50.977Z,-0.10
2023-02-08T11:28:25.741Z,-0.10
2023-02-08T11:30:59.541Z,0.00
2023-02-08T11:33:29.210Z,0.00
2023-02-08T11:36:07.081Z,0.00
2023-02-08T11:38:37.744Z,0.10
2023-02-08T11:41:14.147Z,0.10
2023-02-08T11:43:42.272Z,0.10
2023-02-08T11:46:12.031Z,0.20
2023-02-08T11:48:45.024Z,0.20
2023-02-08T11:51:24.985Z,0.30
2023-02-08T11:53:52.908Z,0.30
2023-02-08T11:56:22.512Z,0.40
2023-02-08T11:59:03.240Z,0.40
2023-02-08T12:01:33.089Z,0.40
2023-02-08T12:04:03.272Z,0.50
2023-02-08T12:06:53.458Z,0.50
2023-02-08T12:09:38.247Z,0.60
2023-02-08T12:12:14.359Z,0.60
2023-02-08T12:14:50.907Z,0.70
2023-02-08T12:17:44.196Z,0.80
2023-02-08T12:20:34.312Z,0.80
2023-02-08T12:23:21.187Z,0.90
2023-02-08T12:25:55.499Z,0.90
2023-02-08T12:28:34.334Z,1.00
2023-02-08T12:31:08.878Z,1.00
2023-02-08T12:33:50.509Z,1.10
2023-02-08T12:36:37.174Z,1.20
2023-02-08T12:39:44.564Z,1.20
2023-02-08T12:42:36.165Z,1.20
2023-02-08T12:45:25.210Z,1.30
2023-02-08T12:48:05.371Z,1.30
2023-02-08T12:50:41.907Z,1.30
2023-02-08T12:53:18.769Z,1.40
2023-02-08T12:55:49.926Z,1.40
2023-02-08T12:58:25.629Z,1.40
2023-02-08T13:00:56.195Z,1.50
2023-02-08T13:03:33.705Z,1.50
2023-02-08T13:06:05.246Z,1.50
2023-02-08T13:08:40.851Z,1.50
2023-02-08T13:11:20.242Z,1.60
2023-02-08T13:13:57.898Z,1.60
2023-02-08T13:16:29.978Z,1.60
2023-02-08T13:19:08.315Z,1.60
2023-02-08T13:21:41.969Z,1.70
2023-02-08T13:24:18.816Z,1.70
2023-02-08T13:26:48.023Z,1.70
2023-02-08T13:29:19.555Z,1.70
2023-02-08T13:31:51.724Z,1.80
2023-02-08T13:34:26.181Z,1.80
2023-02-08T13:36:57.373Z,1.80
2023-02-08T13:39:29.846Z,1.80
2023-02-08T13:41:59.475Z,1.80
2023-02-08T13:44:32.565Z,1.90
2023-02-08T13:47:00.528Z,1.90
2023-02-08T13:49:57.019Z,1.90
2023-02-08T13:52:48.913Z,2.00
2023-02-08T13:55:45.818Z,2.00
2023-02-08T13:59:04.762Z,2.00
2023-02-08T14:01:36.044Z,2.00
2023-02-08T14:04:31.799Z,2.00
2023-02-08T14:07:06.172Z,2.10
2023-02-08T14:09:49.967Z,2.10
2023-02-08T14:12:25.664Z,2.10
2023-02-08T14:15:31.482Z,2.10
2023-02-08T14:18:01.922Z,2.10
2023-02-08T14:20:34.521Z,2.10
2023-02-08T14:23:05.463Z,2.10
2023-02-08T14:25:44.366Z,2.10
2023-02-08T14:28:31.709Z,2.10
2023-02-08T14:31:03.842Z,2.10
2023-02-08T14:33:35.920Z,2.10
2023-02-08T14:36:07.381Z,2.10
2023-02-08T14:38:52.767Z,2.10
2023-02-08T14:41:44.378Z,2.10
2023-02-08T14:44:48.995Z,2.20
2023-02-08T14:48:05.135Z,2.20
2023-02-08T14:50:42.184Z,2.20
2023-02-08T14:53:24.107Z,2.20
2023-02-08T14:55:57.163Z,2.20
2023-02-08T14:58:31.379Z,2.20
2023-02-08T15:01:04.849Z,2.20
2023-02-08T15:03:34.444Z,2.20
2023-02-08T15:06:30.109Z,2.20
2023-02-08T15:08:58.728Z,2.30
2023-02-08T15:11:30.995Z,2.30
2023-02-08T15:14:03.506Z,2.20
2023-02-08T15:16:36.073Z,2.20
2023-02-08T15:19:05.695Z,2.20
2023-02-08T15:21:37.230Z,2.20
2023-02-08T15:24:13.908Z,2.20
2023-02-08T15:26:46.466Z,2.30
2023-02-08T15:29:20.924Z,2.30
2023-02-08T15:31:49.819Z,2.30
2023-02-08T15:34:19.603Z,2.30
2023-02-08T15:36:51.870Z,2.40
2023-02-08T15:39:31.069Z,2.40
2023-02-08T15:41:59.951Z,2.40
2023-02-08T15:44:30.209Z,2.40
2023-02-08T15:47:01.749Z,2.40
2023-02-08T15:49:33.122Z,2.50
2023-02-08T15:52:03.017Z,2.50
2023-02-08T15:54:30.925Z,2.50
2023-02-08T15:57:02.038Z,2.50
2023-02-08T15:59:32.743Z,2.50
2023-02-08T16:02:10.506Z,2.40
2023-02-08T16:04:44.328Z,2.40
2023-02-08T16:07:24.357Z,2.40
2023-02-08T16:09:52.593Z,2.40
2023-02-08T16:12:23.421Z,2.40
2023-02-08T16:14:52.911Z,2.30
2023-02-08T16:17:36.748Z,2.30
2023-02-08T16:20:20.611Z,2.30
2023-02-08T16:22:57.795Z,2.20
2023-02-08T16:25:35.698Z,2.20
2023-02-08T16:28:06.011Z,2.20
2023-02-08T16:30:35.663Z,2.20
2023-02-08T16:33:10.257Z,2.10
2023-02-08T16:35:40.695Z,2.10
2023-02-08T16:38:11.598Z,2.00
2023-02-08T16:40:48.958Z,2.00
2023-02-08T16:43:18.081Z,2.00
2023-02-08T16:45:46.004Z,2.00
2023-02-08T16:48:34.973Z,1.90
2023-02-08T16:51:04.431Z,1.90
2023-02-08T16:53:41.923Z,1.90
2023-02-08T16:56:11.764Z,1.90
2023-02-08T16:58:39.882Z,1.80
2023-02-08T17:01:07.775Z,1.80
2023-02-08T17:03:37.923Z,1.80
2023-02-08T17:06:06.180Z,1.80
2023-02-08T17:08:37.497Z,1.80
2023-02-08T17:11:05.589Z,1.70
2023-02-08T17:13:33.386Z,1.80
2023-02-08T17:16:01.579Z,1.70
2023-02-08T17:18:29.515Z,1.70
2023-02-08T17:20:59.946Z,1.70
2023-02-08T17:23:27.897Z,1.60
2023-02-08T17:25:58.074Z,1.60
2023-02-08T17:28:25.891Z,1.60
2023-02-08T17:30:54.130Z,1.60
2023-02-08T17:33:22.025Z,1.60
2023-02-08T17:35:51.426Z,1.60
2023-02-08T17:38:20.449Z,1.50
2023-02-08T17:40:48.570Z,1.50
2023-02-08T17:43:18.879Z,1.50
2023-02-08T17:45:47.160Z,1.50
2023-02-08T17:48:15.183Z,1.50
2023-02-08T17:50:44.235Z,1.50
2023-02-08T17:53:12.265Z,1.40
2023-02-08T17:55:43.248Z,1.40
2023-02-08T17:58:11.204Z,1.50
2023-02-08T18:00:40.515Z,1.40
2023-02-08T18:03:08.452Z,1.40
2023-02-08T18:05:37.486Z,1.40
2023-02-08T18:08:05.569Z,1.40
2023-02-08T18:10:33.527Z,1.40
2023-02-08T18:13:01.299Z,1.40
2023-02-08T18:15:29.083Z,1.40
2023-02-08T18:17:58.186Z,1.30
2023-02-08T18:20:29.478Z,1.30
2023-02-08T18:22:57.975Z,1.30
2023-02-08T18:25:25.871Z,1.30
2023-02-08T18:27:53.641Z,1.30
2023-02-08T18:30:22.637Z,1.30
2023-02-08T18:32:50.419Z,1.30
2023-02-08T18:35:19.822Z,1.20
2023-02-08T18:37:49.511Z,1.20
2023-02-08T18:40:18.192Z,1.20
2023-02-08T18:42:46.026Z,1.20
2023-02-08T18:45:13.871Z,1.10
2023-02-08T18:47:41.750Z,1.10
2023-02-08T18:50:10.173Z,1.10
2023-02-08T18:52:39.316Z,1.10
2023-02-08T18:55:07.693Z,1.00
2023-02-08T18:57:38.683Z,1.00
2023-02-08T19:00:07.525Z,1.00
2023-02-08T19:02:36.956Z,1.00
2023-02-08T19:05:06.972Z,1.00
2023-02-08T19:07:35.868Z,1.00
2023-02-08T19:10:05.470Z,1.00
2023-02-08T19:12:33.297Z,1.00
2023-02-08T19:15:01.063Z,0.90
2023-02-08T19:17:29.551Z,0.90
2023-02-08T19:19:57.533Z,0.90
2023-02-08T19:22:25.381Z,0.90
2023-02-08T19:24:53.282Z,0.90
2023-02-08T19:27:22.584Z,0.90
2023-02-08T19:29:52.231Z,0.90
2023-02-08T19:32:20.108Z,0.90
2023-02-08T19:34:48.008Z,0.80
2023-02-08T19:37:15.828Z,0.80
2023-02-08T19:39:43.652Z,0.80
2023-02-08T19:42:11.547Z,0.80
2023-02-08T19:44:43.536Z,0.80
2023-02-08T19:47:11.410Z,0.80
2023-02-08T19:49:39.237Z,0.70
2023-02-08T19:52:07.088Z,0.80
2023-02-08T19:54:34.916Z,0.80
2023-02-08T19:57:02.894Z,0.80
2023-02-08T19:59:33.668Z,0.70
2023-02-08T20:02:04.197Z,0.70
2023-02-08T20:04:32.947Z,0.70
2023-02-08T20:07:00.725Z,0.70
2023-02-08T20:09:28.646Z,0.70
2023-02-08T20:11:57.762Z,0.70
2023-02-08T20:14:26.525Z,0.70
2023-02-08T20:16:54.636Z,0.60
2023-02-08T20:19:24.388Z,0.70
2023-02-08T20:21:52.516Z,0.60
2023-02-08T20:24:20.511Z,0.60
2023-02-08T20:26:49.703Z,0.60
2023-02-08T20:29:18.084Z,0.60
2023-02-08T20:31:51.955Z,0.50
2023-02-08T20:34:20.045Z,0.50
2023-02-08T20:37:05.695Z,0.50
2023-02-08T20:39:35.911Z,0.50
2023-02-08T20:42:03.998Z,0.50
2023-02-08T20:44:31.927Z,0.50
2023-02-08T20:46:59.750Z,0.50
2023-02-08T20:49:27.621Z,0.50
2023-02-08T20:51:57.037Z,0.50
2023-02-08T20:54:25.259Z,0.40
2023-02-08T20:56:54.152Z,0.40
2023-02-08T20:59:22.626Z,0.40
2023-02-08T21:01:51.282Z,0.40
2023-02-08T21:04:24.976Z,0.40
2023-02-08T21:06:53.486Z,0.40
2023-02-08T21:09:22.972Z,0.40
2023-02-08T21:11:51.661Z,0.40
2023-02-08T21:14:21.205Z,0.40
2023-02-08T21:16:51.227Z,0.40
2023-02-08T21:19:20.974Z,0.40
2023-02-08T21:21:51.984Z,0.30
2023-02-08T21:24:19.990Z,0.40
2023-02-08T21:26:49.151Z,0.30
2023-02-08T21:29:17.008Z,0.30
2023-02-08T21:31:45.260Z,0.30
2023-02-08T21:34:13.790Z,0.30
2023-02-08T21:36:41.588Z,0.30
2023-02-08T21:39:09.463Z,0.30
2023-02-08T21:41:37.611Z,0.30
2023-02-08T21:44:08.082Z,0.20
2023-02-08T21:46:36.242Z,0.20
2023-02-08T21:49:21.432Z,0.20
2023-02-08T21:52:06.704Z,0.20
2023-02-08T21:54:42.300Z,0.20
2023-02-08T21:57:12.103Z,0.20
2023-02-08T21:59:41.536Z,0.20
2023-02-08T22:02:14.312Z,0.20
2023-02-08T22:04:46.702Z,0.20
2023-02-08T22:07:14.657Z,0.10
2023-02-08T22:09:42.495Z,0.10
2023-02-08T22:12:16.155Z,0.10
2023-02-08T22:14:45.424Z,0.10
2023-02-08T22:17:13.403Z,0.10
2023-02-08T22:19:43.007Z,0.10
2023-02-08T22:22:12.253Z,0.10
2023-02-08T22:24:40.235Z,0.10
2023-02-08T22:27:08.147Z,0.10
2023-02-08T22:29:36.946Z,0.10
2023-02-08T22:32:07.451Z,0.00
2023-02-08T22:34:35.682Z,0.00
2023-02-08T22:37:04.291Z,0.00
2023-02-08T22:39:34.473Z,0.00
2023-02-08T22:42:03.378Z,0.00
2023-02-08T22:44:31.339Z,0.00
2023-02-08T22:47:01.563Z,-0.10
2023-02-08T22:49:30.861Z,0.00
2023-02-08T22:51:58.978Z,-0.10
2023-02-08T22:54:26.929Z,-0.10
2023-02-08T22:56:55.096Z,-0.10
2023-02-08T22:59:23.084Z,-0.10
2023-02-08T23:01:51.061Z,-0.10
2023-02-08T23:04:18.976Z,-0.10
2023-02-08T23:06:48.957Z,-0.10
2023-02-08T23:09:17.588Z,-0.10
2023-02-08T23:11:45.530Z,-0.10
2023-02-08T23:14:13.523Z,-0.10
2023-02-08T23:16:41.536Z,-0.10
2023-02-08T23:19:13.453Z,-0.10
2023-02-08T23:21:41.482Z,-0.10
2023-02-08T23:24:11.001Z,-0.10
2023-02-08T23:26:39.201Z,-0.10
2023-02-08T23:29:07.059Z,-0.10
2023-02-08T23:31:35.612Z,-0.20
2023-02-08T23:34:03.576Z,-0.10
2023-02-08T23:36:31.625Z,-0.20
2023-02-08T23:38:59.497Z,-0.20
2023-02-08T23:41:29.387Z,-0.20
2023-02-08T23:43:57.338Z,-0.20
2023-02-08T23:46:27.622Z,-0.20
2023-02-08T23:48:55.838Z,-0.20
2023-02-08T23:51:25.703Z,-0.20
2023-02-08T23:53:55.176Z,-0.20
2023-02-08T23:56:27.164Z,-0.30
2023-02-08T23:58:59.123Z,-0.30
